sensor_id;sensor_type;location;lat;lon;timestamp;P1;durP1;ratioP1;P2;durP2;ratioP2
32196;SDS011;18697;42.770;23.400;2024-01-27T00:01:29;79.55;;;29.45;;
32196;SDS011;18697;42.770;23.400;2024-01-27T00:03:55;53.45;;;23.17;;
32196;SDS011;18697;42.770;23.400;2024-01-27T00:06:21;53.72;;;22.58;;
32196;SDS011;18697;42.770;23.400;2024-01-27T00:08:46;46.05;;;18.42;;
32196;SDS011;18697;42.770;23.400;2024-01-27T00:11:12;40.38;;;17.38;;
32196;SDS011;18697;42.770;23.400;2024-01-27T00:13:37;43.15;;;17.77;;
32196;SDS011;18697;42.770;23.400;2024-01-27T00:16:02;40.83;;;16.67;;
32196;SDS011;18697;42.770;23.400;2024-01-27T00:18:28;34.42;;;14.75;;
32196;SDS011;18697;42.770;23.400;2024-01-27T00:20:53;29.60;;;13.57;;
32196;SDS011;18697;42.770;23.400;2024-01-27T00:23:19;43.40;;;19.63;;
32196;SDS011;18697;42.770;23.400;2024-01-27T00:25:44;58.95;;;25.13;;
32196;SDS011;18697;42.770;23.400;2024-01-27T00:28:09;39.58;;;19.33;;
32196;SDS011;18697;42.770;23.400;2024-01-27T00:30:35;38.08;;;18.35;;
32196;SDS011;18697;42.770;23.400;2024-01-27T00:33:00;37.72;;;17.95;;
32196;SDS011;18697;42.770;23.400;2024-01-27T00:35:25;33.08;;;16.30;;
32196;SDS011;18697;42.770;23.400;2024-01-27T00:37:52;34.63;;;17.30;;
32196;SDS011;18697;42.770;23.400;2024-01-27T00:40:18;50.22;;;20.25;;
32196;SDS011;18697;42.770;23.400;2024-01-27T00:42:43;52.83;;;20.73;;
32196;SDS011;18697;42.770;23.400;2024-01-27T00:45:09;57.08;;;21.75;;
32196;SDS011;18697;42.770;23.400;2024-01-27T00:47:34;50.40;;;21.38;;
32196;SDS011;18697;42.770;23.400;2024-01-27T00:49:59;50.13;;;19.60;;
32196;SDS011;18697;42.770;23.400;2024-01-27T00:52:25;54.47;;;19.52;;
32196;SDS011;18697;42.770;23.400;2024-01-27T00:54:50;47.25;;;19.38;;
32196;SDS011;18697;42.770;23.400;2024-01-27T00:57:16;42.20;;;16.63;;
32196;SDS011;18697;42.770;23.400;2024-01-27T00:59:41;24.17;;;11.77;;
32196;SDS011;18697;42.770;23.400;2024-01-27T01:02:07;21.95;;;11.43;;
32196;SDS011;18697;42.770;23.400;2024-01-27T01:04:32;22.17;;;10.70;;
32196;SDS011;18697;42.770;23.400;2024-01-27T01:06:58;19.50;;;8.77;;
32196;SDS011;18697;42.770;23.400;2024-01-27T01:09:24;17.45;;;9.40;;
32196;SDS011;18697;42.770;23.400;2024-01-27T01:11:49;17.02;;;9.15;;
32196;SDS011;18697;42.770;23.400;2024-01-27T01:14:14;14.35;;;8.27;;
32196;SDS011;18697;42.770;23.400;2024-01-27T01:16:40;14.60;;;7.97;;
32196;SDS011;18697;42.770;23.400;2024-01-27T01:19:06;14.50;;;6.38;;
32196;SDS011;18697;42.770;23.400;2024-01-27T01:21:31;11.98;;;6.00;;
32196;SDS011;18697;42.770;23.400;2024-01-27T01:23:57;12.50;;;6.60;;
32196;SDS011;18697;42.770;23.400;2024-01-27T01:26:22;9.73;;;5.85;;
32196;SDS011;18697;42.770;23.400;2024-01-27T01:28:48;14.70;;;5.90;;
32196;SDS011;18697;42.770;23.400;2024-01-27T01:31:13;12.18;;;6.00;;
32196;SDS011;18697;42.770;23.400;2024-01-27T01:33:38;12.68;;;5.90;;
32196;SDS011;18697;42.770;23.400;2024-01-27T01:36:04;15.38;;;6.40;;
32196;SDS011;18697;42.770;23.400;2024-01-27T01:38:30;10.45;;;5.82;;
32196;SDS011;18697;42.770;23.400;2024-01-27T01:40:55;16.38;;;6.95;;
32196;SDS011;18697;42.770;23.400;2024-01-27T01:43:20;12.82;;;6.07;;
32196;SDS011;18697;42.770;23.400;2024-01-27T01:45:46;9.43;;;6.18;;
32196;SDS011;18697;42.770;23.400;2024-01-27T01:48:11;14.13;;;5.78;;
32196;SDS011;18697;42.770;23.400;2024-01-27T01:50:37;10.48;;;5.13;;
32196;SDS011;18697;42.770;23.400;2024-01-27T01:53:02;14.45;;;5.93;;
32196;SDS011;18697;42.770;23.400;2024-01-27T01:55:29;9.38;;;5.53;;
32196;SDS011;18697;42.770;23.400;2024-01-27T01:57:54;12.60;;;5.72;;
32196;SDS011;18697;42.770;23.400;2024-01-27T02:00:20;12.30;;;5.90;;
32196;SDS011;18697;42.770;23.400;2024-01-27T02:02:45;11.85;;;5.57;;
32196;SDS011;18697;42.770;23.400;2024-01-27T02:05:14;11.00;;;5.22;;
32196;SDS011;18697;42.770;23.400;2024-01-27T02:07:40;12.82;;;5.40;;
32196;SDS011;18697;42.770;23.400;2024-01-27T02:10:06;13.63;;;5.90;;
32196;SDS011;18697;42.770;23.400;2024-01-27T02:12:37;13.05;;;6.57;;
32196;SDS011;18697;42.770;23.400;2024-01-27T02:15:03;13.40;;;6.78;;
32196;SDS011;18697;42.770;23.400;2024-01-27T02:17:29;13.73;;;7.07;;
32196;SDS011;18697;42.770;23.400;2024-01-27T02:19:54;17.63;;;6.50;;
32196;SDS011;18697;42.770;23.400;2024-01-27T02:22:20;14.90;;;6.30;;
32196;SDS011;18697;42.770;23.400;2024-01-27T02:24:45;10.05;;;6.53;;
32196;SDS011;18697;42.770;23.400;2024-01-27T02:27:11;13.43;;;6.57;;
32196;SDS011;18697;42.770;23.400;2024-01-27T02:29:37;10.52;;;6.57;;
32196;SDS011;18697;42.770;23.400;2024-01-27T02:32:02;10.25;;;6.38;;
32196;SDS011;18697;42.770;23.400;2024-01-27T02:34:28;13.95;;;6.65;;
32196;SDS011;18697;42.770;23.400;2024-01-27T02:36:53;13.90;;;6.25;;
32196;SDS011;18697;42.770;23.400;2024-01-27T02:39:18;10.13;;;6.03;;
32196;SDS011;18697;42.770;23.400;2024-01-27T02:41:44;11.52;;;6.18;;
32196;SDS011;18697;42.770;23.400;2024-01-27T02:44:09;10.65;;;5.38;;
32196;SDS011;18697;42.770;23.400;2024-01-27T02:46:34;12.73;;;5.55;;
32196;SDS011;18697;42.770;23.400;2024-01-27T02:49:00;8.68;;;5.20;;
32196;SDS011;18697;42.770;23.400;2024-01-27T02:51:25;13.38;;;5.60;;
32196;SDS011;18697;42.770;23.400;2024-01-27T02:53:50;9.23;;;4.78;;
32196;SDS011;18697;42.770;23.400;2024-01-27T02:56:16;8.75;;;4.80;;
32196;SDS011;18697;42.770;23.400;2024-01-27T02:58:42;13.15;;;5.45;;
32196;SDS011;18697;42.770;23.400;2024-01-27T03:01:07;10.30;;;5.00;;
32196;SDS011;18697;42.770;23.400;2024-01-27T03:03:33;8.30;;;4.85;;
32196;SDS011;18697;42.770;23.400;2024-01-27T03:05:59;12.80;;;5.72;;
32196;SDS011;18697;42.770;23.400;2024-01-27T03:08:24;10.55;;;5.47;;
32196;SDS011;18697;42.770;23.400;2024-01-27T03:10:49;10.25;;;4.90;;
32196;SDS011;18697;42.770;23.400;2024-01-27T03:13:15;12.90;;;5.30;;
32196;SDS011;18697;42.770;23.400;2024-01-27T03:15:41;8.95;;;5.30;;
32196;SDS011;18697;42.770;23.400;2024-01-27T03:18:08;11.15;;;5.22;;
32196;SDS011;18697;42.770;23.400;2024-01-27T03:20:33;11.25;;;5.40;;
32196;SDS011;18697;42.770;23.400;2024-01-27T03:22:59;12.32;;;5.28;;
32196;SDS011;18697;42.770;23.400;2024-01-27T03:25:24;8.98;;;4.50;;
32196;SDS011;18697;42.770;23.400;2024-01-27T03:27:51;10.85;;;5.72;;
32196;SDS011;18697;42.770;23.400;2024-01-27T03:30:16;16.27;;;5.40;;
32196;SDS011;18697;42.770;23.400;2024-01-27T03:32:42;11.85;;;6.32;;
32196;SDS011;18697;42.770;23.400;2024-01-27T03:35:07;11.52;;;5.60;;
32196;SDS011;18697;42.770;23.400;2024-01-27T03:37:33;13.23;;;6.05;;
32196;SDS011;18697;42.770;23.400;2024-01-27T03:39:59;10.05;;;5.38;;
32196;SDS011;18697;42.770;23.400;2024-01-27T03:42:25;8.38;;;4.50;;
32196;SDS011;18697;42.770;23.400;2024-01-27T03:44:50;8.27;;;5.03;;
32196;SDS011;18697;42.770;23.400;2024-01-27T03:47:16;12.07;;;4.97;;
32196;SDS011;18697;42.770;23.400;2024-01-27T03:49:42;7.20;;;4.78;;
32196;SDS011;18697;42.770;23.400;2024-01-27T03:52:08;8.90;;;4.80;;
32196;SDS011;18697;42.770;23.400;2024-01-27T03:54:33;10.07;;;5.20;;
32196;SDS011;18697;42.770;23.400;2024-01-27T03:56:59;10.48;;;4.60;;
32196;SDS011;18697;42.770;23.400;2024-01-27T03:59:24;8.18;;;4.60;;
32196;SDS011;18697;42.770;23.400;2024-01-27T04:01:50;12.07;;;5.32;;
32196;SDS011;18697;42.770;23.400;2024-01-27T04:04:15;10.18;;;5.45;;
32196;SDS011;18697;42.770;23.400;2024-01-27T04:06:41;10.75;;;5.32;;
32196;SDS011;18697;42.770;23.400;2024-01-27T04:09:06;14.02;;;5.57;;
32196;SDS011;18697;42.770;23.400;2024-01-27T04:11:35;11.52;;;5.45;;
32196;SDS011;18697;42.770;23.400;2024-01-27T04:14:05;11.02;;;5.28;;
32196;SDS011;18697;42.770;23.400;2024-01-27T04:16:31;12.05;;;5.40;;
32196;SDS011;18697;42.770;23.400;2024-01-27T04:18:56;9.18;;;5.10;;
32196;SDS011;18697;42.770;23.400;2024-01-27T04:21:22;5.80;;;4.82;;
32196;SDS011;18697;42.770;23.400;2024-01-27T04:23:47;12.45;;;4.80;;
32196;SDS011;18697;42.770;23.400;2024-01-27T04:26:13;12.00;;;5.40;;
32196;SDS011;18697;42.770;23.400;2024-01-27T04:28:39;8.80;;;4.93;;
32196;SDS011;18697;42.770;23.400;2024-01-27T04:31:04;10.02;;;5.70;;
32196;SDS011;18697;42.770;23.400;2024-01-27T04:33:30;14.20;;;7.15;;
32196;SDS011;18697;42.770;23.400;2024-01-27T04:35:55;15.80;;;5.90;;
32196;SDS011;18697;42.770;23.400;2024-01-27T04:38:21;11.02;;;5.22;;
32196;SDS011;18697;42.770;23.400;2024-01-27T04:40:46;13.70;;;5.35;;
32196;SDS011;18697;42.770;23.400;2024-01-27T04:43:16;10.82;;;5.95;;
32196;SDS011;18697;42.770;23.400;2024-01-27T04:45:43;26.73;;;14.98;;
32196;SDS011;18697;42.770;23.400;2024-01-27T04:48:09;25.25;;;14.60;;
32196;SDS011;18697;42.770;23.400;2024-01-27T04:50:34;13.98;;;7.40;;
32196;SDS011;18697;42.770;23.400;2024-01-27T04:53:00;10.07;;;6.32;;
32196;SDS011;18697;42.770;23.400;2024-01-27T04:55:26;13.90;;;7.22;;
32196;SDS011;18697;42.770;23.400;2024-01-27T04:57:51;10.27;;;7.18;;
32196;SDS011;18697;42.770;23.400;2024-01-27T05:00:17;13.80;;;6.55;;
32196;SDS011;18697;42.770;23.400;2024-01-27T05:02:42;10.68;;;5.90;;
32196;SDS011;18697;42.770;23.400;2024-01-27T05:05:08;7.63;;;4.28;;
32196;SDS011;18697;42.770;23.400;2024-01-27T05:07:34;11.48;;;4.50;;
32196;SDS011;18697;42.770;23.400;2024-01-27T05:09:59;10.93;;;5.70;;
32196;SDS011;18697;42.770;23.400;2024-01-27T05:12:25;7.63;;;4.97;;
32196;SDS011;18697;42.770;23.400;2024-01-27T05:14:50;11.18;;;4.97;;
32196;SDS011;18697;42.770;23.400;2024-01-27T05:17:16;7.00;;;4.53;;
32196;SDS011;18697;42.770;23.400;2024-01-27T05:19:41;7.20;;;4.95;;
32196;SDS011;18697;42.770;23.400;2024-01-27T05:22:06;9.75;;;4.53;;
32196;SDS011;18697;42.770;23.400;2024-01-27T05:24:32;9.52;;;5.00;;
32196;SDS011;18697;42.770;23.400;2024-01-27T05:26:58;8.20;;;4.80;;
32196;SDS011;18697;42.770;23.400;2024-01-27T05:29:24;5.68;;;4.35;;
32196;SDS011;18697;42.770;23.400;2024-01-27T05:31:49;12.85;;;4.75;;
32196;SDS011;18697;42.770;23.400;2024-01-27T05:34:14;10.18;;;4.38;;
32196;SDS011;18697;42.770;23.400;2024-01-27T05:36:40;5.43;;;4.28;;
32196;SDS011;18697;42.770;23.400;2024-01-27T05:39:05;9.68;;;4.50;;
32196;SDS011;18697;42.770;23.400;2024-01-27T05:41:31;10.07;;;4.38;;
32196;SDS011;18697;42.770;23.400;2024-01-27T05:43:57;7.70;;;4.80;;
32196;SDS011;18697;42.770;23.400;2024-01-27T05:46:23;9.98;;;4.18;;
32196;SDS011;18697;42.770;23.400;2024-01-27T05:48:49;12.98;;;4.95;;
32196;SDS011;18697;42.770;23.400;2024-01-27T05:51:16;11.48;;;5.78;;
32196;SDS011;18697;42.770;23.400;2024-01-27T05:53:41;12.63;;;5.57;;
32196;SDS011;18697;42.770;23.400;2024-01-27T05:56:07;9.57;;;5.72;;
32196;SDS011;18697;42.770;23.400;2024-01-27T05:58:32;6.22;;;4.90;;
32196;SDS011;18697;42.770;23.400;2024-01-27T06:00:58;10.98;;;5.97;;
32196;SDS011;18697;42.770;23.400;2024-01-27T06:03:23;16.20;;;6.68;;
32196;SDS011;18697;42.770;23.400;2024-01-27T06:05:49;13.60;;;7.05;;
32196;SDS011;18697;42.770;23.400;2024-01-27T06:08:14;15.73;;;6.65;;
32196;SDS011;18697;42.770;23.400;2024-01-27T06:10:40;11.02;;;6.85;;
32196;SDS011;18697;42.770;23.400;2024-01-27T06:13:05;14.38;;;5.90;;
32196;SDS011;18697;42.770;23.400;2024-01-27T06:15:31;12.10;;;6.28;;
32196;SDS011;18697;42.770;23.400;2024-01-27T06:17:56;10.85;;;5.88;;
32196;SDS011;18697;42.770;23.400;2024-01-27T06:20:22;9.82;;;5.43;;
32196;SDS011;18697;42.770;23.400;2024-01-27T06:22:48;9.38;;;5.07;;
32196;SDS011;18697;42.770;23.400;2024-01-27T06:25:14;10.07;;;6.40;;
32196;SDS011;18697;42.770;23.400;2024-01-27T06:27:39;8.57;;;5.18;;
32196;SDS011;18697;42.770;23.400;2024-01-27T06:30:07;12.02;;;5.40;;
32196;SDS011;18697;42.770;23.400;2024-01-27T06:32:34;7.72;;;4.72;;
32196;SDS011;18697;42.770;23.400;2024-01-27T06:35:00;8.50;;;4.90;;
32196;SDS011;18697;42.770;23.400;2024-01-27T06:37:25;8.93;;;4.60;;
32196;SDS011;18697;42.770;23.400;2024-01-27T06:39:51;10.43;;;4.88;;
32196;SDS011;18697;42.770;23.400;2024-01-27T06:42:16;6.80;;;4.35;;
32196;SDS011;18697;42.770;23.400;2024-01-27T06:44:41;11.50;;;5.10;;
32196;SDS011;18697;42.770;23.400;2024-01-27T06:47:07;8.52;;;4.95;;
32196;SDS011;18697;42.770;23.400;2024-01-27T06:49:32;9.20;;;4.85;;
32196;SDS011;18697;42.770;23.400;2024-01-27T06:51:58;5.90;;;4.18;;
32196;SDS011;18697;42.770;23.400;2024-01-27T06:54:23;13.02;;;5.07;;
32196;SDS011;18697;42.770;23.400;2024-01-27T06:56:49;8.15;;;4.97;;
32196;SDS011;18697;42.770;23.400;2024-01-27T06:59:14;10.00;;;5.63;;
32196;SDS011;18697;42.770;23.400;2024-01-27T07:01:45;6.35;;;4.10;;
32196;SDS011;18697;42.770;23.400;2024-01-27T07:04:16;6.88;;;4.20;;
32196;SDS011;18697;42.770;23.400;2024-01-27T07:06:42;7.15;;;4.60;;
32196;SDS011;18697;42.770;23.400;2024-01-27T07:09:08;6.72;;;4.13;;
32196;SDS011;18697;42.770;23.400;2024-01-27T07:11:34;5.45;;;3.83;;
32196;SDS011;18697;42.770;23.400;2024-01-27T07:14:00;4.32;;;3.72;;
32196;SDS011;18697;42.770;23.400;2024-01-27T07:16:25;5.00;;;3.88;;
32196;SDS011;18697;42.770;23.400;2024-01-27T07:18:51;6.40;;;3.33;;
32196;SDS011;18697;42.770;23.400;2024-01-27T07:21:16;5.40;;;3.08;;
32196;SDS011;18697;42.770;23.400;2024-01-27T07:23:42;3.60;;;2.67;;
32196;SDS011;18697;42.770;23.400;2024-01-27T07:26:09;3.13;;;2.80;;
32196;SDS011;18697;42.770;23.400;2024-01-27T07:28:35;4.28;;;3.00;;
32196;SDS011;18697;42.770;23.400;2024-01-27T07:31:00;3.67;;;3.30;;
32196;SDS011;18697;42.770;23.400;2024-01-27T07:33:26;4.13;;;2.85;;
32196;SDS011;18697;42.770;23.400;2024-01-27T07:35:51;3.05;;;2.85;;
32196;SDS011;18697;42.770;23.400;2024-01-27T07:38:16;3.13;;;2.90;;
32196;SDS011;18697;42.770;23.400;2024-01-27T07:40:42;3.63;;;2.67;;
32196;SDS011;18697;42.770;23.400;2024-01-27T07:43:07;3.75;;;3.00;;
32196;SDS011;18697;42.770;23.400;2024-01-27T07:45:33;4.57;;;3.13;;
32196;SDS011;18697;42.770;23.400;2024-01-27T07:47:58;5.40;;;3.10;;
32196;SDS011;18697;42.770;23.400;2024-01-27T07:50:24;5.72;;;3.90;;
32196;SDS011;18697;42.770;23.400;2024-01-27T07:52:49;5.53;;;3.97;;
32196;SDS011;18697;42.770;23.400;2024-01-27T07:55:15;4.88;;;3.88;;
32196;SDS011;18697;42.770;23.400;2024-01-27T07:57:42;4.47;;;4.07;;
32196;SDS011;18697;42.770;23.400;2024-01-27T08:00:07;8.52;;;5.78;;
32196;SDS011;18697;42.770;23.400;2024-01-27T08:02:33;6.10;;;4.57;;
32196;SDS011;18697;42.770;23.400;2024-01-27T08:04:59;5.35;;;4.65;;
32196;SDS011;18697;42.770;23.400;2024-01-27T08:07:24;9.55;;;5.35;;
32196;SDS011;18697;42.770;23.400;2024-01-27T08:09:49;10.15;;;5.68;;
32196;SDS011;18697;42.770;23.400;2024-01-27T08:12:15;9.88;;;5.93;;
32196;SDS011;18697;42.770;23.400;2024-01-27T08:14:40;9.20;;;6.28;;
32196;SDS011;18697;42.770;23.400;2024-01-27T08:17:05;10.18;;;5.82;;
32196;SDS011;18697;42.770;23.400;2024-01-27T08:19:31;7.95;;;6.20;;
32196;SDS011;18697;42.770;23.400;2024-01-27T08:21:56;8.27;;;6.00;;
32196;SDS011;18697;42.770;23.400;2024-01-27T08:24:22;8.68;;;5.90;;
32196;SDS011;18697;42.770;23.400;2024-01-27T08:26:49;7.10;;;6.00;;
32196;SDS011;18697;42.770;23.400;2024-01-27T08:29:14;8.38;;;5.35;;
32196;SDS011;18697;42.770;23.400;2024-01-27T08:31:40;7.30;;;5.97;;
32196;SDS011;18697;42.770;23.400;2024-01-27T08:34:05;8.00;;;5.22;;
32196;SDS011;18697;42.770;23.400;2024-01-27T08:36:32;9.07;;;6.07;;
32196;SDS011;18697;42.770;23.400;2024-01-27T08:38:59;9.90;;;6.30;;
32196;SDS011;18697;42.770;23.400;2024-01-27T08:41:24;14.02;;;6.93;;
32196;SDS011;18697;42.770;23.400;2024-01-27T08:43:50;10.13;;;5.90;;
32196;SDS011;18697;42.770;23.400;2024-01-27T08:46:16;7.10;;;5.40;;
32196;SDS011;18697;42.770;23.400;2024-01-27T08:48:44;7.63;;;5.63;;
32196;SDS011;18697;42.770;23.400;2024-01-27T08:51:09;11.82;;;5.03;;
32196;SDS011;18697;42.770;23.400;2024-01-27T08:53:35;6.78;;;5.55;;
32196;SDS011;18697;42.770;23.400;2024-01-27T08:56:01;7.38;;;5.00;;
32196;SDS011;18697;42.770;23.400;2024-01-27T08:58:26;7.30;;;4.93;;
32196;SDS011;18697;42.770;23.400;2024-01-27T09:00:52;6.60;;;4.65;;
32196;SDS011;18697;42.770;23.400;2024-01-27T09:03:18;5.00;;;4.43;;
32196;SDS011;18697;42.770;23.400;2024-01-27T09:05:45;5.50;;;3.97;;
32196;SDS011;18697;42.770;23.400;2024-01-27T09:08:11;4.93;;;3.83;;
32196;SDS011;18697;42.770;23.400;2024-01-27T09:10:36;8.80;;;4.50;;
32196;SDS011;18697;42.770;23.400;2024-01-27T09:13:02;5.85;;;4.90;;
32196;SDS011;18697;42.770;23.400;2024-01-27T09:15:28;7.65;;;5.10;;
32196;SDS011;18697;42.770;23.400;2024-01-27T09:17:53;8.25;;;4.75;;
32196;SDS011;18697;42.770;23.400;2024-01-27T09:20:19;4.28;;;3.35;;
32196;SDS011;18697;42.770;23.400;2024-01-27T09:22:44;3.95;;;3.65;;
32196;SDS011;18697;42.770;23.400;2024-01-27T09:25:12;5.15;;;4.50;;
32196;SDS011;18697;42.770;23.400;2024-01-27T09:27:38;4.30;;;3.75;;
32196;SDS011;18697;42.770;23.400;2024-01-27T09:30:04;3.55;;;3.22;;
32196;SDS011;18697;42.770;23.400;2024-01-27T09:32:30;5.32;;;3.45;;
32196;SDS011;18697;42.770;23.400;2024-01-27T09:34:56;6.88;;;4.75;;
32196;SDS011;18697;42.770;23.400;2024-01-27T09:37:21;4.60;;;3.22;;
32196;SDS011;18697;42.770;23.400;2024-01-27T09:39:46;5.68;;;3.72;;
32196;SDS011;18697;42.770;23.400;2024-01-27T09:42:13;3.70;;;3.40;;
32196;SDS011;18697;42.770;23.400;2024-01-27T09:44:42;4.15;;;3.85;;
32196;SDS011;18697;42.770;23.400;2024-01-27T09:47:12;5.70;;;4.32;;
32196;SDS011;18697;42.770;23.400;2024-01-27T09:49:39;7.63;;;4.35;;
32196;SDS011;18697;42.770;23.400;2024-01-27T09:52:06;5.40;;;4.18;;
32196;SDS011;18697;42.770;23.400;2024-01-27T09:54:31;5.22;;;4.72;;
32196;SDS011;18697;42.770;23.400;2024-01-27T09:56:57;5.72;;;3.90;;
32196;SDS011;18697;42.770;23.400;2024-01-27T09:59:23;4.78;;;4.38;;
32196;SDS011;18697;42.770;23.400;2024-01-27T10:01:50;3.38;;;3.15;;
32196;SDS011;18697;42.770;23.400;2024-01-27T10:04:17;4.60;;;4.20;;
32196;SDS011;18697;42.770;23.400;2024-01-27T10:06:44;5.43;;;3.40;;
32196;SDS011;18697;42.770;23.400;2024-01-27T10:09:11;3.17;;;2.75;;
32196;SDS011;18697;42.770;23.400;2024-01-27T10:11:36;2.95;;;2.75;;
32196;SDS011;18697;42.770;23.400;2024-01-27T10:14:05;3.42;;;3.13;;
32196;SDS011;18697;42.770;23.400;2024-01-27T10:16:39;3.55;;;3.25;;
32196;SDS011;18697;42.770;23.400;2024-01-27T10:19:11;3.72;;;3.42;;
32196;SDS011;18697;42.770;23.400;2024-01-27T10:21:40;7.28;;;3.55;;
32196;SDS011;18697;42.770;23.400;2024-01-27T10:24:05;5.72;;;3.58;;
32196;SDS011;18697;42.770;23.400;2024-01-27T10:26:31;3.40;;;3.10;;
32196;SDS011;18697;42.770;23.400;2024-01-27T10:28:57;3.67;;;3.33;;
32196;SDS011;18697;42.770;23.400;2024-01-27T10:31:26;5.90;;;3.38;;
32196;SDS011;18697;42.770;23.400;2024-01-27T10:33:53;5.20;;;3.20;;
32196;SDS011;18697;42.770;23.400;2024-01-27T10:36:19;4.13;;;3.58;;
32196;SDS011;18697;42.770;23.400;2024-01-27T10:38:45;3.25;;;3.00;;
32196;SDS011;18697;42.770;23.400;2024-01-27T10:41:10;4.75;;;3.22;;
32196;SDS011;18697;42.770;23.400;2024-01-27T10:43:36;4.88;;;3.70;;
32196;SDS011;18697;42.770;23.400;2024-01-27T10:46:03;3.35;;;3.10;;
32196;SDS011;18697;42.770;23.400;2024-01-27T10:48:31;2.95;;;2.70;;
32196;SDS011;18697;42.770;23.400;2024-01-27T10:50:59;3.38;;;2.92;;
32196;SDS011;18697;42.770;23.400;2024-01-27T10:53:28;3.60;;;2.90;;
32196;SDS011;18697;42.770;23.400;2024-01-27T10:55:57;3.13;;;2.50;;
32196;SDS011;18697;42.770;23.400;2024-01-27T10:58:23;2.55;;;2.35;;
32196;SDS011;18697;42.770;23.400;2024-01-27T11:00:53;2.50;;;2.30;;
32196;SDS011;18697;42.770;23.400;2024-01-27T11:03:20;3.20;;;3.00;;
32196;SDS011;18697;42.770;23.400;2024-01-27T11:05:47;4.15;;;3.40;;
32196;SDS011;18697;42.770;23.400;2024-01-27T11:08:15;4.00;;;2.58;;
32196;SDS011;18697;42.770;23.400;2024-01-27T11:10:43;2.72;;;2.53;;
32196;SDS011;18697;42.770;23.400;2024-01-27T11:13:08;2.50;;;2.30;;
32196;SDS011;18697;42.770;23.400;2024-01-27T11:15:34;4.72;;;3.30;;
32196;SDS011;18697;42.770;23.400;2024-01-27T11:18:00;4.38;;;3.10;;
32196;SDS011;18697;42.770;23.400;2024-01-27T11:20:27;3.33;;;3.00;;
32196;SDS011;18697;42.770;23.400;2024-01-27T11:22:52;2.90;;;2.70;;
32196;SDS011;18697;42.770;23.400;2024-01-27T11:25:19;3.63;;;3.03;;
32196;SDS011;18697;42.770;23.400;2024-01-27T11:27:45;3.88;;;3.50;;
32196;SDS011;18697;42.770;23.400;2024-01-27T11:30:26;3.50;;;3.20;;
32196;SDS011;18697;42.770;23.400;2024-01-27T11:32:55;4.30;;;3.90;;
32196;SDS011;18697;42.770;23.400;2024-01-27T11:35:22;3.85;;;3.53;;
32196;SDS011;18697;42.770;23.400;2024-01-27T11:37:47;6.65;;;4.40;;
32196;SDS011;18697;42.770;23.400;2024-01-27T11:40:13;4.78;;;4.20;;
32196;SDS011;18697;42.770;23.400;2024-01-27T11:42:40;4.55;;;4.15;;
32196;SDS011;18697;42.770;23.400;2024-01-27T11:45:06;4.28;;;3.65;;
32196;SDS011;18697;42.770;23.400;2024-01-27T11:47:32;6.95;;;4.10;;
32196;SDS011;18697;42.770;23.400;2024-01-27T11:49:58;5.93;;;4.43;;
32196;SDS011;18697;42.770;23.400;2024-01-27T11:52:24;10.73;;;5.15;;
32196;SDS011;18697;42.770;23.400;2024-01-27T11:55:08;5.38;;;4.60;;
32196;SDS011;18697;42.770;23.400;2024-01-27T11:57:33;7.60;;;4.30;;
32196;SDS011;18697;42.770;23.400;2024-01-27T11:59:59;5.25;;;4.75;;
32196;SDS011;18697;42.770;23.400;2024-01-27T12:02:24;6.57;;;4.93;;
32196;SDS011;18697;42.770;23.400;2024-01-27T12:04:49;4.43;;;4.00;;
32196;SDS011;18697;42.770;23.400;2024-01-27T12:07:15;4.38;;;3.97;;
32196;SDS011;18697;42.770;23.400;2024-01-27T12:09:43;4.45;;;4.03;;
32196;SDS011;18697;42.770;23.400;2024-01-27T12:12:09;3.92;;;3.63;;
32196;SDS011;18697;42.770;23.400;2024-01-27T12:14:38;3.92;;;3.63;;
32196;SDS011;18697;42.770;23.400;2024-01-27T12:17:05;5.85;;;4.03;;
32196;SDS011;18697;42.770;23.400;2024-01-27T12:19:30;4.63;;;4.22;;
32196;SDS011;18697;42.770;23.400;2024-01-27T12:21:56;4.30;;;3.85;;
32196;SDS011;18697;42.770;23.400;2024-01-27T12:24:23;4.53;;;4.20;;
32196;SDS011;18697;42.770;23.400;2024-01-27T12:26:49;4.57;;;3.97;;
32196;SDS011;18697;42.770;23.400;2024-01-27T12:29:14;4.50;;;3.83;;
32196;SDS011;18697;42.770;23.400;2024-01-27T12:31:39;3.83;;;3.53;;
32196;SDS011;18697;42.770;23.400;2024-01-27T12:34:05;4.30;;;4.00;;
32196;SDS011;18697;42.770;23.400;2024-01-27T12:36:32;8.93;;;5.72;;
32196;SDS011;18697;42.770;23.400;2024-01-27T12:38:58;5.05;;;4.10;;
32196;SDS011;18697;42.770;23.400;2024-01-27T12:41:25;4.63;;;3.80;;
32196;SDS011;18697;42.770;23.400;2024-01-27T12:43:51;4.07;;;3.70;;
32196;SDS011;18697;42.770;23.400;2024-01-27T12:46:17;4.07;;;3.67;;
32196;SDS011;18697;42.770;23.400;2024-01-27T12:48:43;5.93;;;5.40;;
32196;SDS011;18697;42.770;23.400;2024-01-27T12:51:09;5.65;;;4.70;;
32196;SDS011;18697;42.770;23.400;2024-01-27T12:53:35;4.80;;;4.40;;
32196;SDS011;18697;42.770;23.400;2024-01-27T12:56:03;7.88;;;5.95;;
32196;SDS011;18697;42.770;23.400;2024-01-27T12:58:29;6.00;;;5.50;;
32196;SDS011;18697;42.770;23.400;2024-01-27T13:00:54;7.10;;;5.05;;
32196;SDS011;18697;42.770;23.400;2024-01-27T13:03:20;4.60;;;4.13;;
32196;SDS011;18697;42.770;23.400;2024-01-27T13:05:45;4.35;;;3.20;;
32196;SDS011;18697;42.770;23.400;2024-01-27T13:08:10;2.95;;;2.75;;
32196;SDS011;18697;42.770;23.400;2024-01-27T13:10:36;2.72;;;2.53;;
32196;SDS011;18697;42.770;23.400;2024-01-27T13:13:02;3.30;;;2.85;;
32196;SDS011;18697;42.770;23.400;2024-01-27T13:15:27;3.80;;;3.50;;
32196;SDS011;18697;42.770;23.400;2024-01-27T13:17:53;5.90;;;4.05;;
32196;SDS011;18697;42.770;23.400;2024-01-27T13:20:18;3.72;;;3.38;;
32196;SDS011;18697;42.770;23.400;2024-01-27T13:22:43;7.32;;;3.95;;
32196;SDS011;18697;42.770;23.400;2024-01-27T13:25:10;5.10;;;3.33;;
32196;SDS011;18697;42.770;23.400;2024-01-27T13:27:35;6.63;;;4.32;;
32196;SDS011;18697;42.770;23.400;2024-01-27T13:30:01;5.90;;;3.28;;
32196;SDS011;18697;42.770;23.400;2024-01-27T13:32:26;4.32;;;3.90;;
32196;SDS011;18697;42.770;23.400;2024-01-27T13:34:52;5.53;;;3.17;;
32196;SDS011;18697;42.770;23.400;2024-01-27T13:37:17;6.53;;;3.42;;
32196;SDS011;18697;42.770;23.400;2024-01-27T13:39:43;4.15;;;3.33;;
32196;SDS011;18697;42.770;23.400;2024-01-27T13:42:09;4.00;;;3.60;;
32196;SDS011;18697;42.770;23.400;2024-01-27T13:44:34;4.72;;;4.28;;
32196;SDS011;18697;42.770;23.400;2024-01-27T13:47:01;3.05;;;2.85;;
32196;SDS011;18697;42.770;23.400;2024-01-27T13:49:30;5.53;;;3.88;;
32196;SDS011;18697;42.770;23.400;2024-01-27T13:51:57;2.92;;;2.22;;
32196;SDS011;18697;42.770;23.400;2024-01-27T13:54:22;5.88;;;3.78;;
32196;SDS011;18697;42.770;23.400;2024-01-27T13:56:50;3.20;;;2.78;;
32196;SDS011;18697;42.770;23.400;2024-01-27T13:59:16;3.65;;;2.75;;
32196;SDS011;18697;42.770;23.400;2024-01-27T14:01:44;5.03;;;3.42;;
32196;SDS011;18697;42.770;23.400;2024-01-27T14:04:09;4.53;;;2.85;;
32196;SDS011;18697;42.770;23.400;2024-01-27T14:06:35;4.53;;;2.75;;
32196;SDS011;18697;42.770;23.400;2024-01-27T14:09:00;2.97;;;2.60;;
32196;SDS011;18697;42.770;23.400;2024-01-27T14:11:27;2.75;;;2.40;;
32196;SDS011;18697;42.770;23.400;2024-01-27T14:13:53;5.70;;;2.85;;
32196;SDS011;18697;42.770;23.400;2024-01-27T14:16:18;3.90;;;2.90;;
32196;SDS011;18697;42.770;23.400;2024-01-27T14:18:44;2.72;;;2.33;;
32196;SDS011;18697;42.770;23.400;2024-01-27T14:21:10;5.50;;;4.28;;